Delta Billie — WDE8059 — position and weather

sailwx.info

Track history (hours):
 
Tides and Currents Weather Stations Pressure Air Temp Water Temp Dewpoint Dewpoint Depression Visibility Wind Speed Wind Dir Waves Ship Positions

Delta Billie

More information available from US FCC via Universal Licensing System and Coast Guard Vessel Documentation Center.

Last reported at 2014-Jul-29 22:33 UTC. Time now 2014-Jul-29 23:02 UTC.
Position N 38°02' W 122°21'.

Length 30 m; draft 5.5 m.

Type: Towing. MMSI: 367401030.

Date/timePositionNaut miles runAvg speedWind from/ knotsBaromVisibWave heightAir tempDewpointWater temp
2014-Jul-29 22:33N 38°02' W 122°21'6 6.0
2014-Jul-29 21:33N 37°58' W 122°27'6 5.6
2014-Jul-29 20:33N 37°52' W 122°25'3 3.5
2014-Jul-29 19:33N 37°49' W 122°26'4 4.3
2014-Jul-29 18:33N 37°49' W 122°31'1 0.6
2014-Jul-29 17:33N 37°49' W 122°31'5 5.4
2014-Jul-29 16:33N 37°48' W 122°24'0 0.0
2014-Jul-29 15:33N 37°48' W 122°24'1 0.8
2014-Jul-29 14:33N 37°48' W 122°23'4 4.1
2014-Jul-29 13:33N 37°48' W 122°18'1 1.0
2014-Jul-29 12:33N 37°48' W 122°19'4 3.9
2014-Jul-29 11:33N 37°48' W 122°24'0 0.0
2014-Jul-29 10:33N 37°48' W 122°24'0 0.0
2014-Jul-29 09:34N 37°48' W 122°24'0 0.0
2014-Jul-29 08:33N 37°48' W 122°24'0 0.0
2014-Jul-29 07:33N 37°48' W 122°24'0 0.0
2014-Jul-29 06:34N 37°48' W 122°24'0 0.0
2014-Jul-29 05:33N 37°48' W 122°24'0 0.0
2014-Jul-29 04:33N 37°48' W 122°24'0 0.0
2014-Jul-29 03:33N 37°48' W 122°24'0 0.0
2014-Jul-29 02:33N 37°48' W 122°24'1 0.7
2014-Jul-29 01:34N 37°49' W 122°24'7 6.8
2014-Jul-29 00:33N 37°56' W 122°25'1 1.1
2014-Jul-28 23:33N 37°55' W 122°25'2 2.2
2014-Jul-28 22:34N 37°52' W 122°25'8 7.7
2014-Jul-28 21:33N 38°00' W 122°24'9 7.9
2014-Jul-28 20:25N 38°04' W 122°14'5 0.6
2014-Jul-28 12:12N 38°02' W 122°08'0 0.2
2014-Jul-28 11:04N 38°02' W 122°07'1 0.2
2014-Jul-28 07:32N 38°03' W 122°08'0 0.0
2014-Jul-28 06:25N 38°03' W 122°08'0 0.0
2014-Jul-28 05:33N 38°03' W 122°08'0 0.0
2014-Jul-28 04:30N 38°03' W 122°08'0 0.0
2014-Jul-28 03:14N 38°03' W 122°08'0 0.0
2014-Jul-28 01:32N 38°03' W 122°08'0 0.0
2014-Jul-28 00:33N 38°03' W 122°08'11 5.4
2014-Jul-27 22:32N 38°03' W 121°54'2 1.0
2014-Jul-27 20:33N 38°02' W 121°52'1 1.1
2014-Jul-27 19:33N 38°02' W 121°51'4 3.6
2014-Jul-27 18:32N 38°03' W 121°55'10 1.0
2014-Jul-27 08:17N 38°03' W 122°08'0 0.0
2014-Jul-27 06:33N 38°03' W 122°08'0 0.0
2014-Jul-27 05:34N 38°03' W 122°08'0 0.0
2014-Jul-26 21:15N 38°03' W 122°08'0 0.0
2014-Jul-26 20:28N 38°03' W 122°08'0 0.1
2014-Jul-26 19:09N 38°02' W 122°08'2 0.3
2014-Jul-26 13:30N 38°03' W 122°10'9 7.0
2014-Jul-26 12:14N 38°02' W 122°22'5 7.5
2014-Jul-26 11:34N 37°58' W 122°26'5 4.8
2014-Jul-26 10:34N 37°55' W 122°22'1 1.2
2014-Jul-26 09:33N 37°54' W 122°23'0 0.0
2014-Jul-26 08:33N 37°54' W 122°23'0 0.0
2014-Jul-26 07:33N 37°54' W 122°23'0 0.0
2014-Jul-26 06:33N 37°54' W 122°23'5 5.4
2014-Jul-26 05:34N 37°60' W 122°25'10 9.8
2014-Jul-26 04:34N 38°04' W 122°13'4 3.6
2014-Jul-26 03:23N 38°03' W 122°08'0 0.0
2014-Jul-26 02:32N 38°03' W 122°08'0 0.1
2014-Jul-25 20:30N 38°02' W 122°08'7 7.6
2014-Jul-25 19:33N 38°04' W 122°17'7 4.9
2014-Jul-25 18:09N 38°02' W 122°09'1 0.5
2014-Jul-25 16:33N 38°03' W 122°08'0 0.0
2014-Jul-25 15:33N 38°03' W 122°08'2 0.1
2014-Jul-24 16:26N 38°03' W 122°10'7 8.2
2014-Jul-24 15:31N 38°03' W 122°20'8 8.5
2014-Jul-24 14:34N 37°56' W 122°26'0 0.3
2014-Jul-24 13:33N 37°56' W 122°25'9 8.4
2014-Jul-24 12:32N 38°03' W 122°19'9 1.1
2014-Jul-24 04:31N 38°02' W 122°08'3 2.6
2014-Jul-24 03:30N 38°03' W 122°11'9 9.1
2014-Jul-24 02:29N 38°01' W 122°23'9 9.8
2014-Jul-24 01:33N 37°52' W 122°25'4 4.3
2014-Jul-24 00:33N 37°48' W 122°24'0 0.0
2014-Jul-23 23:33N 37°48' W 122°24'0 0.0
2014-Jul-23 22:33N 37°48' W 122°24'2 1.7
2014-Jul-23 21:33N 37°50' W 122°24'6 5.8
2014-Jul-23 20:34N 37°56' W 122°25'0 0.2
2014-Jul-23 19:33N 37°55' W 122°25'2 1.8
2014-Jul-23 18:33N 37°54' W 122°25'2 2.0
2014-Jul-23 17:33N 37°56' W 122°25'0 0.0
2014-Jul-23 16:33N 37°56' W 122°25'0 0.0
2014-Jul-23 15:33N 37°56' W 122°25'0 0.0
2014-Jul-23 14:34N 37°56' W 122°25'0 0.0
2014-Jul-23 13:33N 37°56' W 122°25'0 0.0
2014-Jul-23 12:33N 37°56' W 122°25'0 0.0
2014-Jul-23 11:33N 37°56' W 122°25'0 0.0
2014-Jul-23 10:33N 37°56' W 122°25'0 0.0
2014-Jul-23 09:33N 37°56' W 122°25'2 2.1
2014-Jul-23 08:34N 37°55' W 122°22'0 0.0
2014-Jul-23 07:33N 37°55' W 122°22'1 1.1
2014-Jul-23 06:33N 37°54' W 122°22'6 6.2
2014-Jul-23 05:34N 37°48' W 122°24'0 0.0
2014-Jul-23 04:33N 37°48' W 122°24'0 0.0
2014-Jul-23 03:33N 37°48' W 122°24'1 0.5
2014-Jul-23 02:33N 37°48' W 122°23'5 4.7
2014-Jul-23 01:34N 37°47' W 122°17'  
Track history (hours):
 
Tides and Currents Weather Stations Pressure Air Temp Water Temp Dewpoint Dewpoint Depression Visibility Wind Speed Wind Dir Waves Ship Positions

Delta Billie

More information available from US FCC via Universal Licensing System and Coast Guard Vessel Documentation Center.

Last reported at 2014-Jul-29 22:33 UTC. Time now 2014-Jul-29 23:02 UTC.
Position N 38°02' W 122°21'.

Length 30 m; draft 5.5 m.

Type: Towing. MMSI: 367401030.

Date/timePositionNaut miles runAvg speedWind from/ knotsBaromVisibWave heightAir tempDewpointWater temp
2014-Jul-29 22:33N 38°02' W 122°21'6 6.0
2014-Jul-29 21:33N 37°58' W 122°27'6 5.6
2014-Jul-29 20:33N 37°52' W 122°25'3 3.5
2014-Jul-29 19:33N 37°49' W 122°26'4 4.3
2014-Jul-29 18:33N 37°49' W 122°31'1 0.6
2014-Jul-29 17:33N 37°49' W 122°31'5 5.4
2014-Jul-29 16:33N 37°48' W 122°24'0 0.0
2014-Jul-29 15:33N 37°48' W 122°24'1 0.8
2014-Jul-29 14:33N 37°48' W 122°23'4 4.1
2014-Jul-29 13:33N 37°48' W 122°18'1 1.0
2014-Jul-29 12:33N 37°48' W 122°19'4 3.9
2014-Jul-29 11:33N 37°48' W 122°24'0 0.0
2014-Jul-29 10:33N 37°48' W 122°24'0 0.0
2014-Jul-29 09:34N 37°48' W 122°24'0 0.0
2014-Jul-29 08:33N 37°48' W 122°24'0 0.0
2014-Jul-29 07:33N 37°48' W 122°24'0 0.0
2014-Jul-29 06:34N 37°48' W 122°24'0 0.0
2014-Jul-29 05:33N 37°48' W 122°24'0 0.0
2014-Jul-29 04:33N 37°48' W 122°24'0 0.0
2014-Jul-29 03:33N 37°48' W 122°24'0 0.0
2014-Jul-29 02:33N 37°48' W 122°24'1 0.7
2014-Jul-29 01:34N 37°49' W 122°24'7 6.8
2014-Jul-29 00:33N 37°56' W 122°25'1 1.1
2014-Jul-28 23:33N 37°55' W 122°25'2 2.2
2014-Jul-28 22:34N 37°52' W 122°25'8 7.7
2014-Jul-28 21:33N 38°00' W 122°24'9 7.9
2014-Jul-28 20:25N 38°04' W 122°14'5 0.6
2014-Jul-28 12:12N 38°02' W 122°08'0 0.2
2014-Jul-28 11:04N 38°02' W 122°07'1 0.2
2014-Jul-28 07:32N 38°03' W 122°08'0 0.0
2014-Jul-28 06:25N 38°03' W 122°08'0 0.0
2014-Jul-28 05:33N 38°03' W 122°08'0 0.0
2014-Jul-28 04:30N 38°03' W 122°08'0 0.0
2014-Jul-28 03:14N 38°03' W 122°08'0 0.0
2014-Jul-28 01:32N 38°03' W 122°08'0 0.0
2014-Jul-28 00:33N 38°03' W 122°08'11 5.4
2014-Jul-27 22:32N 38°03' W 121°54'2 1.0
2014-Jul-27 20:33N 38°02' W 121°52'1 1.1
2014-Jul-27 19:33N 38°02' W 121°51'4 3.6
2014-Jul-27 18:32N 38°03' W 121°55'10 1.0
2014-Jul-27 08:17N 38°03' W 122°08'0 0.0
2014-Jul-27 06:33N 38°03' W 122°08'0 0.0
2014-Jul-27 05:34N 38°03' W 122°08'0 0.0
2014-Jul-26 21:15N 38°03' W 122°08'0 0.0
2014-Jul-26 20:28N 38°03' W 122°08'0 0.1
2014-Jul-26 19:09N 38°02' W 122°08'2 0.3
2014-Jul-26 13:30N 38°03' W 122°10'9 7.0
2014-Jul-26 12:14N 38°02' W 122°22'5 7.5
2014-Jul-26 11:34N 37°58' W 122°26'5 4.8
2014-Jul-26 10:34N 37°55' W 122°22'1 1.2
2014-Jul-26 09:33N 37°54' W 122°23'0 0.0
2014-Jul-26 08:33N 37°54' W 122°23'0 0.0
2014-Jul-26 07:33N 37°54' W 122°23'0 0.0
2014-Jul-26 06:33N 37°54' W 122°23'5 5.4
2014-Jul-26 05:34N 37°60' W 122°25'10 9.8
2014-Jul-26 04:34N 38°04' W 122°13'4 3.6
2014-Jul-26 03:23N 38°03' W 122°08'0 0.0
2014-Jul-26 02:32N 38°03' W 122°08'0 0.1
2014-Jul-25 20:30N 38°02' W 122°08'7 7.6
2014-Jul-25 19:33N 38°04' W 122°17'7 4.9
2014-Jul-25 18:09N 38°02' W 122°09'1 0.5
2014-Jul-25 16:33N 38°03' W 122°08'0 0.0
2014-Jul-25 15:33N 38°03' W 122°08'2 0.1
2014-Jul-24 16:26N 38°03' W 122°10'7 8.2
2014-Jul-24 15:31N 38°03' W 122°20'8 8.5
2014-Jul-24 14:34N 37°56' W 122°26'0 0.3
2014-Jul-24 13:33N 37°56' W 122°25'9 8.4
2014-Jul-24 12:32N 38°03' W 122°19'9 1.1
2014-Jul-24 04:31N 38°02' W 122°08'3 2.6
2014-Jul-24 03:30N 38°03' W 122°11'9 9.1
2014-Jul-24 02:29N 38°01' W 122°23'9 9.8
2014-Jul-24 01:33N 37°52' W 122°25'4 4.3
2014-Jul-24 00:33N 37°48' W 122°24'0 0.0
2014-Jul-23 23:33N 37°48' W 122°24'0 0.0
2014-Jul-23 22:33N 37°48' W 122°24'2 1.7
2014-Jul-23 21:33N 37°50' W 122°24'6 5.8
2014-Jul-23 20:34N 37°56' W 122°25'0 0.2
2014-Jul-23 19:33N 37°55' W 122°25'2 1.8
2014-Jul-23 18:33N 37°54' W 122°25'2 2.0
2014-Jul-23 17:33N 37°56' W 122°25'0 0.0
2014-Jul-23 16:33N 37°56' W 122°25'0 0.0
2014-Jul-23 15:33N 37°56' W 122°25'0 0.0
2014-Jul-23 14:34N 37°56' W 122°25'0 0.0
2014-Jul-23 13:33N 37°56' W 122°25'0 0.0
2014-Jul-23 12:33N 37°56' W 122°25'0 0.0
2014-Jul-23 11:33N 37°56' W 122°25'0 0.0
2014-Jul-23 10:33N 37°56' W 122°25'0 0.0
2014-Jul-23 09:33N 37°56' W 122°25'2 2.1
2014-Jul-23 08:34N 37°55' W 122°22'0 0.0
2014-Jul-23 07:33N 37°55' W 122°22'1 1.1
2014-Jul-23 06:33N 37°54' W 122°22'6 6.2
2014-Jul-23 05:34N 37°48' W 122°24'0 0.0
2014-Jul-23 04:33N 37°48' W 122°24'0 0.0
2014-Jul-23 03:33N 37°48' W 122°24'1 0.5
2014-Jul-23 02:33N 37°48' W 122°23'5 4.7
2014-Jul-23 01:34N 37°47' W 122°17'  

Dump ship's entire track history